sensor_id;sensor_type;location;lat;lon;timestamp;P1;durP1;ratioP1;P2;durP2;ratioP2
12474;SDS011;6302;42.624;23.334;2022-09-27T00:00:36;14.57;;;12.53;;
12474;SDS011;6302;42.624;23.334;2022-09-27T00:03:05;13.80;;;12.40;;
12474;SDS011;6302;42.624;23.334;2022-09-27T00:05:33;13.60;;;12.27;;
12474;SDS011;6302;42.624;23.334;2022-09-27T00:08:01;12.37;;;11.17;;
12474;SDS011;6302;42.624;23.334;2022-09-27T00:10:28;13.20;;;11.40;;
12474;SDS011;6302;42.624;23.334;2022-09-27T00:12:55;13.80;;;10.87;;
12474;SDS011;6302;42.624;23.334;2022-09-27T00:15:22;12.23;;;10.90;;
12474;SDS011;6302;42.624;23.334;2022-09-27T00:17:48;12.33;;;11.10;;
12474;SDS011;6302;42.624;23.334;2022-09-27T00:20:16;12.53;;;11.23;;
12474;SDS011;6302;42.624;23.334;2022-09-27T00:22:46;11.43;;;10.03;;
12474;SDS011;6302;42.624;23.334;2022-09-27T00:25:13;12.00;;;10.53;;
12474;SDS011;6302;42.624;23.334;2022-09-27T00:27:41;11.77;;;10.57;;
12474;SDS011;6302;42.624;23.334;2022-09-27T00:30:08;11.80;;;10.60;;
12474;SDS011;6302;42.624;23.334;2022-09-27T00:32:36;12.33;;;9.73;;
12474;SDS011;6302;42.624;23.334;2022-09-27T00:35:03;11.70;;;9.93;;
12474;SDS011;6302;42.624;23.334;2022-09-27T00:37:30;12.70;;;10.10;;
12474;SDS011;6302;42.624;23.334;2022-09-27T00:39:59;12.63;;;10.70;;
12474;SDS011;6302;42.624;23.334;2022-09-27T00:42:26;12.87;;;9.87;;
12474;SDS011;6302;42.624;23.334;2022-09-27T00:47:42;11.17;;;10.07;;
12474;SDS011;6302;42.624;23.334;2022-09-27T00:50:23;11.97;;;10.77;;
12474;SDS011;6302;42.624;23.334;2022-09-27T00:52:56;11.20;;;9.83;;
12474;SDS011;6302;42.624;23.334;2022-09-27T00:55:31;11.07;;;9.90;;
12474;SDS011;6302;42.624;23.334;2022-09-27T00:58:02;10.27;;;9.17;;
12474;SDS011;6302;42.624;23.334;2022-09-27T01:00:32;10.93;;;9.37;;
12474;SDS011;6302;42.624;23.334;2022-09-27T01:02:59;9.67;;;8.67;;
12474;SDS011;6302;42.624;23.334;2022-09-27T01:05:30;10.57;;;9.40;;
12474;SDS011;6302;42.624;23.334;2022-09-27T01:07:57;10.20;;;9.20;;
12474;SDS011;6302;42.624;23.334;2022-09-27T01:10:25;9.60;;;8.70;;
12474;SDS011;6302;42.624;23.334;2022-09-27T01:13:00;9.37;;;8.23;;
12474;SDS011;6302;42.624;23.334;2022-09-27T01:15:33;9.67;;;8.67;;
12474;SDS011;6302;42.624;23.334;2022-09-27T01:18:12;9.03;;;7.97;;
12474;SDS011;6302;42.624;23.334;2022-09-27T01:20:52;9.40;;;8.40;;
12474;SDS011;6302;42.624;23.334;2022-09-27T01:24:05;9.30;;;8.33;;
12474;SDS011;6302;42.624;23.334;2022-09-27T01:27:09;8.83;;;8.03;;
12474;SDS011;6302;42.624;23.334;2022-09-27T01:32:55;9.30;;;8.40;;
12474;SDS011;6302;42.624;23.334;2022-09-27T01:35:37;9.27;;;8.37;;
12474;SDS011;6302;42.624;23.334;2022-09-27T01:38:16;12.27;;;8.67;;
12474;SDS011;6302;42.624;23.334;2022-09-27T01:40:51;10.40;;;8.70;;
12474;SDS011;6302;42.624;23.334;2022-09-27T01:43:23;9.20;;;8.30;;
12474;SDS011;6302;42.624;23.334;2022-09-27T01:45:55;9.73;;;8.73;;
12474;SDS011;6302;42.624;23.334;2022-09-27T01:48:31;10.67;;;9.57;;
12474;SDS011;6302;42.624;23.334;2022-09-27T01:51:05;9.93;;;8.93;;
12474;SDS011;6302;42.624;23.334;2022-09-27T01:53:37;9.83;;;8.93;;
12474;SDS011;6302;42.624;23.334;2022-09-27T01:56:06;10.13;;;9.13;;
12474;SDS011;6302;42.624;23.334;2022-09-27T01:58:40;10.47;;;9.40;;
12474;SDS011;6302;42.624;23.334;2022-09-27T02:01:12;11.00;;;9.93;;
12474;SDS011;6302;42.624;23.334;2022-09-27T02:03:43;11.27;;;9.97;;
12474;SDS011;6302;42.624;23.334;2022-09-27T02:06:14;10.90;;;9.80;;
12474;SDS011;6302;42.624;23.334;2022-09-27T02:08:44;10.73;;;9.63;;
12474;SDS011;6302;42.624;23.334;2022-09-27T02:11:14;10.80;;;9.70;;
12474;SDS011;6302;42.624;23.334;2022-09-27T02:13:43;10.90;;;9.80;;
12474;SDS011;6302;42.624;23.334;2022-09-27T02:16:19;14.30;;;10.43;;
12474;SDS011;6302;42.624;23.334;2022-09-27T02:18:52;11.57;;;10.20;;
12474;SDS011;6302;42.624;23.334;2022-09-27T02:21:30;11.00;;;9.90;;
12474;SDS011;6302;42.624;23.334;2022-09-27T02:24:06;10.90;;;9.90;;
12474;SDS011;6302;42.624;23.334;2022-09-27T02:26:39;10.70;;;9.33;;
12474;SDS011;6302;42.624;23.334;2022-09-27T02:29:09;10.40;;;9.07;;
12474;SDS011;6302;42.624;23.334;2022-09-27T02:31:40;9.20;;;8.30;;
12474;SDS011;6302;42.624;23.334;2022-09-27T02:34:10;9.40;;;8.40;;
12474;SDS011;6302;42.624;23.334;2022-09-27T02:36:41;10.60;;;9.50;;
12474;SDS011;6302;42.624;23.334;2022-09-27T02:39:08;10.17;;;9.17;;
12474;SDS011;6302;42.624;23.334;2022-09-27T02:41:36;9.80;;;8.80;;
12474;SDS011;6302;42.624;23.334;2022-09-27T02:44:03;10.73;;;9.00;;
12474;SDS011;6302;42.624;23.334;2022-09-27T02:46:46;9.17;;;8.27;;
12474;SDS011;6302;42.624;23.334;2022-09-27T02:49:42;7.73;;;6.93;;
12474;SDS011;6302;42.624;23.334;2022-09-27T02:52:21;11.27;;;8.97;;
12474;SDS011;6302;42.624;23.334;2022-09-27T02:54:59;10.80;;;9.80;;
12474;SDS011;6302;42.624;23.334;2022-09-27T02:57:35;13.20;;;10.83;;
12474;SDS011;6302;42.624;23.334;2022-09-27T03:00:15;8.40;;;7.20;;
12474;SDS011;6302;42.624;23.334;2022-09-27T03:02:48;9.73;;;8.73;;
12474;SDS011;6302;42.624;23.334;2022-09-27T03:05:22;11.43;;;10.23;;
12474;SDS011;6302;42.624;23.334;2022-09-27T03:07:52;20.07;;;11.43;;
12474;SDS011;6302;42.624;23.334;2022-09-27T03:10:21;26.07;;;11.50;;
12474;SDS011;6302;42.624;23.334;2022-09-27T03:12:50;24.23;;;11.57;;
12474;SDS011;6302;42.624;23.334;2022-09-27T03:15:17;12.23;;;11.03;;
12474;SDS011;6302;42.624;23.334;2022-09-27T03:17:44;23.70;;;11.30;;
12474;SDS011;6302;42.624;23.334;2022-09-27T03:20:11;18.70;;;11.57;;
12474;SDS011;6302;42.624;23.334;2022-09-27T03:22:39;12.67;;;11.47;;
12474;SDS011;6302;42.624;23.334;2022-09-27T03:25:06;14.40;;;10.97;;
12474;SDS011;6302;42.624;23.334;2022-09-27T03:27:35;13.13;;;11.73;;
12474;SDS011;6302;42.624;23.334;2022-09-27T03:30:02;12.20;;;10.90;;
12474;SDS011;6302;42.624;23.334;2022-09-27T03:32:30;11.30;;;10.20;;
12474;SDS011;6302;42.624;23.334;2022-09-27T03:34:57;11.50;;;10.43;;
12474;SDS011;6302;42.624;23.334;2022-09-27T03:37:24;10.70;;;9.63;;
12474;SDS011;6302;42.624;23.334;2022-09-27T03:39:54;10.10;;;9.10;;
12474;SDS011;6302;42.624;23.334;2022-09-27T03:42:21;10.87;;;9.77;;
12474;SDS011;6302;42.624;23.334;2022-09-27T03:44:48;9.73;;;8.73;;
12474;SDS011;6302;42.624;23.334;2022-09-27T03:47:15;9.97;;;8.97;;
12474;SDS011;6302;42.624;23.334;2022-09-27T03:49:42;10.17;;;9.07;;
12474;SDS011;6302;42.624;23.334;2022-09-27T03:52:09;9.60;;;8.60;;
12474;SDS011;6302;42.624;23.334;2022-09-27T03:54:36;9.20;;;7.93;;
12474;SDS011;6302;42.624;23.334;2022-09-27T03:57:04;9.63;;;8.13;;
12474;SDS011;6302;42.624;23.334;2022-09-27T03:59:31;8.67;;;7.87;;
12474;SDS011;6302;42.624;23.334;2022-09-27T04:01:58;9.00;;;8.10;;
12474;SDS011;6302;42.624;23.334;2022-09-27T04:04:24;9.53;;;8.63;;
12474;SDS011;6302;42.624;23.334;2022-09-27T04:06:51;9.07;;;8.17;;
12474;SDS011;6302;42.624;23.334;2022-09-27T04:09:18;9.83;;;8.83;;
12474;SDS011;6302;42.624;23.334;2022-09-27T04:11:45;9.20;;;8.30;;
12474;SDS011;6302;42.624;23.334;2022-09-27T04:14:14;10.10;;;8.40;;
12474;SDS011;6302;42.624;23.334;2022-09-27T04:16:41;9.20;;;8.30;;
12474;SDS011;6302;42.624;23.334;2022-09-27T04:19:08;8.80;;;7.90;;
12474;SDS011;6302;42.624;23.334;2022-09-27T04:21:35;9.63;;;8.60;;
12474;SDS011;6302;42.624;23.334;2022-09-27T04:24:02;9.70;;;8.80;;
12474;SDS011;6302;42.624;23.334;2022-09-27T04:26:29;8.73;;;7.93;;
12474;SDS011;6302;42.624;23.334;2022-09-27T04:28:56;9.43;;;8.43;;
12474;SDS011;6302;42.624;23.334;2022-09-27T04:31:24;9.60;;;8.60;;
12474;SDS011;6302;42.624;23.334;2022-09-27T04:33:52;10.00;;;9.00;;
12474;SDS011;6302;42.624;23.334;2022-09-27T04:36:20;11.83;;;9.20;;
12474;SDS011;6302;42.624;23.334;2022-09-27T04:38:53;11.70;;;10.57;;
12474;SDS011;6302;42.624;23.334;2022-09-27T04:41:20;10.20;;;8.90;;
12474;SDS011;6302;42.624;23.334;2022-09-27T04:43:49;11.03;;;9.77;;
12474;SDS011;6302;42.624;23.334;2022-09-27T04:46:15;13.40;;;11.97;;
12474;SDS011;6302;42.624;23.334;2022-09-27T04:48:44;15.67;;;12.10;;
12474;SDS011;6302;42.624;23.334;2022-09-27T04:51:11;12.93;;;11.50;;
12474;SDS011;6302;42.624;23.334;2022-09-27T04:53:40;17.03;;;12.90;;
12474;SDS011;6302;42.624;23.334;2022-09-27T04:56:07;47.97;;;15.00;;
12474;SDS011;6302;42.624;23.334;2022-09-27T04:58:34;40.63;;;16.53;;
12474;SDS011;6302;42.624;23.334;2022-09-27T05:01:01;17.33;;;15.03;;
12474;SDS011;6302;42.624;23.334;2022-09-27T05:03:29;23.80;;;15.03;;
12474;SDS011;6302;42.624;23.334;2022-09-27T05:05:57;17.03;;;14.17;;
12474;SDS011;6302;42.624;23.334;2022-09-27T05:08:24;16.80;;;14.93;;
12474;SDS011;6302;42.624;23.334;2022-09-27T05:10:52;15.80;;;14.13;;
12474;SDS011;6302;42.624;23.334;2022-09-27T05:13:19;17.17;;;14.10;;
12474;SDS011;6302;42.624;23.334;2022-09-27T05:15:47;15.17;;;13.57;;
12474;SDS011;6302;42.624;23.334;2022-09-27T05:18:13;12.87;;;11.57;;
12474;SDS011;6302;42.624;23.334;2022-09-27T05:20:42;14.40;;;12.77;;
12474;SDS011;6302;42.624;23.334;2022-09-27T05:23:10;15.63;;;12.93;;
12474;SDS011;6302;42.624;23.334;2022-09-27T05:25:37;13.87;;;11.70;;
12474;SDS011;6302;42.624;23.334;2022-09-27T05:28:04;13.40;;;11.67;;
12474;SDS011;6302;42.624;23.334;2022-09-27T05:30:32;11.60;;;10.17;;
12474;SDS011;6302;42.624;23.334;2022-09-27T05:33:00;12.27;;;10.90;;
12474;SDS011;6302;42.624;23.334;2022-09-27T05:35:27;13.20;;;11.90;;
12474;SDS011;6302;42.624;23.334;2022-09-27T05:37:54;13.93;;;12.53;;
12474;SDS011;6302;42.624;23.334;2022-09-27T05:40:23;13.93;;;12.43;;
12474;SDS011;6302;42.624;23.334;2022-09-27T05:42:51;14.33;;;12.83;;
12474;SDS011;6302;42.624;23.334;2022-09-27T05:45:19;14.27;;;12.87;;
12474;SDS011;6302;42.624;23.334;2022-09-27T05:47:53;14.90;;;13.13;;
12474;SDS011;6302;42.624;23.334;2022-09-27T05:50:21;13.20;;;11.93;;
12474;SDS011;6302;42.624;23.334;2022-09-27T05:52:48;13.27;;;11.97;;
12474;SDS011;6302;42.624;23.334;2022-09-27T05:55:16;13.17;;;11.87;;
12474;SDS011;6302;42.624;23.334;2022-09-27T05:57:53;13.70;;;12.03;;
12474;SDS011;6302;42.624;23.334;2022-09-27T06:00:21;14.30;;;12.80;;
12474;SDS011;6302;42.624;23.334;2022-09-27T06:02:53;12.87;;;11.53;;
12474;SDS011;6302;42.624;23.334;2022-09-27T06:05:21;10.50;;;9.43;;
12474;SDS011;6302;42.624;23.334;2022-09-27T06:07:48;9.70;;;8.70;;
12474;SDS011;6302;42.624;23.334;2022-09-27T06:10:15;7.83;;;6.43;;
12474;SDS011;6302;42.624;23.334;2022-09-27T06:12:43;11.93;;;9.67;;
12474;SDS011;6302;42.624;23.334;2022-09-27T06:15:12;15.03;;;12.47;;
12474;SDS011;6302;42.624;23.334;2022-09-27T06:17:39;12.33;;;10.20;;
12474;SDS011;6302;42.624;23.334;2022-09-27T06:20:07;14.60;;;13.00;;
12474;SDS011;6302;42.624;23.334;2022-09-27T06:22:34;17.27;;;13.70;;
12474;SDS011;6302;42.624;23.334;2022-09-27T06:25:01;22.53;;;14.07;;
12474;SDS011;6302;42.624;23.334;2022-09-27T06:27:29;27.87;;;14.73;;
12474;SDS011;6302;42.624;23.334;2022-09-27T06:29:56;16.20;;;13.93;;
12474;SDS011;6302;42.624;23.334;2022-09-27T06:32:24;16.67;;;14.47;;
12474;SDS011;6302;42.624;23.334;2022-09-27T06:34:51;24.40;;;16.97;;
12474;SDS011;6302;42.624;23.334;2022-09-27T06:37:18;22.83;;;16.40;;
12474;SDS011;6302;42.624;23.334;2022-09-27T06:39:45;19.43;;;16.13;;
12474;SDS011;6302;42.624;23.334;2022-09-27T06:42:13;18.80;;;15.60;;
12474;SDS011;6302;42.624;23.334;2022-09-27T06:44:42;18.63;;;15.77;;
12474;SDS011;6302;42.624;23.334;2022-09-27T06:47:11;18.67;;;16.57;;
12474;SDS011;6302;42.624;23.334;2022-09-27T06:49:40;18.00;;;16.07;;
12474;SDS011;6302;42.624;23.334;2022-09-27T06:52:07;20.63;;;18.00;;
12474;SDS011;6302;42.624;23.334;2022-09-27T06:54:34;17.87;;;15.97;;
12474;SDS011;6302;42.624;23.334;2022-09-27T06:57:01;21.73;;;17.30;;
12474;SDS011;6302;42.624;23.334;2022-09-27T06:59:28;18.27;;;16.27;;
12474;SDS011;6302;42.624;23.334;2022-09-27T07:02:12;21.53;;;16.10;;
12474;SDS011;6302;42.624;23.334;2022-09-27T07:04:40;52.27;;;27.73;;
12474;SDS011;6302;42.624;23.334;2022-09-27T07:07:08;34.63;;;21.53;;
12474;SDS011;6302;42.624;23.334;2022-09-27T07:09:34;20.50;;;16.97;;
12474;SDS011;6302;42.624;23.334;2022-09-27T07:12:03;25.87;;;21.93;;
12474;SDS011;6302;42.624;23.334;2022-09-27T07:14:30;23.47;;;20.57;;
12474;SDS011;6302;42.624;23.334;2022-09-27T07:16:58;22.27;;;19.33;;
12474;SDS011;6302;42.624;23.334;2022-09-27T07:19:25;20.30;;;17.37;;
12474;SDS011;6302;42.624;23.334;2022-09-27T07:21:55;20.50;;;18.33;;
12474;SDS011;6302;42.624;23.334;2022-09-27T07:24:22;20.47;;;18.33;;
12474;SDS011;6302;42.624;23.334;2022-09-27T07:26:49;21.07;;;18.53;;
12474;SDS011;6302;42.624;23.334;2022-09-27T07:29:16;22.30;;;19.90;;
12474;SDS011;6302;42.624;23.334;2022-09-27T07:31:43;38.03;;;33.13;;
12474;SDS011;6302;42.624;23.334;2022-09-27T07:34:10;34.03;;;30.30;;
12474;SDS011;6302;42.624;23.334;2022-09-27T07:36:37;28.37;;;25.33;;
12474;SDS011;6302;42.624;23.334;2022-09-27T07:39:05;25.97;;;21.83;;
12474;SDS011;6302;42.624;23.334;2022-09-27T07:41:32;21.27;;;19.00;;
12474;SDS011;6302;42.624;23.334;2022-09-27T07:43:59;20.20;;;17.63;;
12474;SDS011;6302;42.624;23.334;2022-09-27T07:46:28;20.33;;;17.23;;
12474;SDS011;6302;42.624;23.334;2022-09-27T07:48:55;19.57;;;16.23;;
12474;SDS011;6302;42.624;23.334;2022-09-27T07:51:22;27.47;;;19.13;;
12474;SDS011;6302;42.624;23.334;2022-09-27T07:53:49;29.03;;;19.10;;
12474;SDS011;6302;42.624;23.334;2022-09-27T07:56:17;20.10;;;17.50;;
12474;SDS011;6302;42.624;23.334;2022-09-27T07:58:44;34.50;;;19.10;;
12474;SDS011;6302;42.624;23.334;2022-09-27T08:01:12;20.87;;;18.47;;
12474;SDS011;6302;42.624;23.334;2022-09-27T08:03:39;22.43;;;19.47;;
12474;SDS011;6302;42.624;23.334;2022-09-27T08:06:06;21.63;;;19.33;;
12474;SDS011;6302;42.624;23.334;2022-09-27T08:08:33;24.67;;;20.23;;
12474;SDS011;6302;42.624;23.334;2022-09-27T08:11:00;25.90;;;18.80;;
12474;SDS011;6302;42.624;23.334;2022-09-27T08:13:28;20.33;;;18.23;;
12474;SDS011;6302;42.624;23.334;2022-09-27T08:15:59;20.53;;;18.53;;
12474;SDS011;6302;42.624;23.334;2022-09-27T08:18:27;20.30;;;17.60;;
12474;SDS011;6302;42.624;23.334;2022-09-27T08:20:55;19.33;;;17.23;;
12474;SDS011;6302;42.624;23.334;2022-09-27T08:23:22;21.90;;;18.70;;
12474;SDS011;6302;42.624;23.334;2022-09-27T08:25:51;19.60;;;17.50;;
12474;SDS011;6302;42.624;23.334;2022-09-27T08:28:18;19.27;;;16.73;;
12474;SDS011;6302;42.624;23.334;2022-09-27T08:30:48;20.07;;;17.67;;
12474;SDS011;6302;42.624;23.334;2022-09-27T08:33:15;20.60;;;18.20;;
12474;SDS011;6302;42.624;23.334;2022-09-27T08:35:42;24.27;;;20.87;;
12474;SDS011;6302;42.624;23.334;2022-09-27T08:38:09;26.17;;;22.20;;
12474;SDS011;6302;42.624;23.334;2022-09-27T08:40:39;26.93;;;22.53;;
12474;SDS011;6302;42.624;23.334;2022-09-27T08:43:16;25.50;;;21.30;;
12474;SDS011;6302;42.624;23.334;2022-09-27T08:45:57;19.63;;;17.53;;
12474;SDS011;6302;42.624;23.334;2022-09-27T08:48:30;21.57;;;18.70;;
12474;SDS011;6302;42.624;23.334;2022-09-27T08:50:59;19.67;;;17.57;;
12474;SDS011;6302;42.624;23.334;2022-09-27T08:53:27;21.53;;;19.00;;
12474;SDS011;6302;42.624;23.334;2022-09-27T08:55:58;19.40;;;17.40;;
12474;SDS011;6302;42.624;23.334;2022-09-27T08:58:27;20.50;;;17.90;;
12474;SDS011;6302;42.624;23.334;2022-09-27T09:00:59;19.97;;;17.97;;
12474;SDS011;6302;42.624;23.334;2022-09-27T09:03:29;20.80;;;18.23;;
12474;SDS011;6302;42.624;23.334;2022-09-27T09:06:03;20.57;;;18.47;;
12474;SDS011;6302;42.624;23.334;2022-09-27T09:08:38;18.23;;;16.33;;
12474;SDS011;6302;42.624;23.334;2022-09-27T09:11:18;19.33;;;17.33;;
12474;SDS011;6302;42.624;23.334;2022-09-27T09:14:18;21.27;;;18.67;;
12474;SDS011;6302;42.624;23.334;2022-09-27T09:16:56;19.63;;;17.63;;
12474;SDS011;6302;42.624;23.334;2022-09-27T09:19:38;17.97;;;15.53;;
12474;SDS011;6302;42.624;23.334;2022-09-27T09:22:25;18.40;;;16.47;;
12474;SDS011;6302;42.624;23.334;2022-09-27T09:25:09;19.93;;;17.87;;
12474;SDS011;6302;42.624;23.334;2022-09-27T09:27:48;19.43;;;17.43;;
12474;SDS011;6302;42.624;23.334;2022-09-27T09:30:27;22.00;;;19.70;;
12474;SDS011;6302;42.624;23.334;2022-09-27T09:35:51;22.40;;;18.20;;
12474;SDS011;6302;42.624;23.334;2022-09-27T09:38:24;22.60;;;19.33;;
12474;SDS011;6302;42.624;23.334;2022-09-27T09:40:56;21.27;;;19.17;;
12474;SDS011;6302;42.624;23.334;2022-09-27T09:43:28;20.30;;;18.30;;
12474;SDS011;6302;42.624;23.334;2022-09-27T09:45:59;20.27;;;18.27;;
12474;SDS011;6302;42.624;23.334;2022-09-27T09:48:36;21.67;;;19.47;;
12474;SDS011;6302;42.624;23.334;2022-09-27T09:51:10;20.83;;;18.67;;
12474;SDS011;6302;42.624;23.334;2022-09-27T09:53:41;21.43;;;19.17;;
12474;SDS011;6302;42.624;23.334;2022-09-27T09:56:16;20.50;;;18.50;;
12474;SDS011;6302;42.624;23.334;2022-09-27T09:58:49;18.30;;;16.43;;
12474;SDS011;6302;42.624;23.334;2022-09-27T10:01:20;19.00;;;17.07;;
12474;SDS011;6302;42.624;23.334;2022-09-27T10:03:51;22.33;;;19.47;;
12474;SDS011;6302;42.624;23.334;2022-09-27T10:06:19;28.63;;;25.70;;
12474;SDS011;6302;42.624;23.334;2022-09-27T10:08:47;20.87;;;16.30;;
12474;SDS011;6302;42.624;23.334;2022-09-27T10:11:19;16.47;;;14.77;;
12474;SDS011;6302;42.624;23.334;2022-09-27T10:13:48;16.03;;;14.53;;
12474;SDS011;6302;42.624;23.334;2022-09-27T10:16:15;15.77;;;14.27;;
12474;SDS011;6302;42.624;23.334;2022-09-27T10:18:44;15.90;;;14.20;;
12474;SDS011;6302;42.624;23.334;2022-09-27T10:21:16;16.67;;;15.07;;
12474;SDS011;6302;42.624;23.334;2022-09-27T10:24:03;17.43;;;15.30;;
12474;SDS011;6302;42.624;23.334;2022-09-27T10:26:32;16.20;;;14.50;;
12474;SDS011;6302;42.624;23.334;2022-09-27T10:29:12;16.17;;;14.57;;
12474;SDS011;6302;42.624;23.334;2022-09-27T10:31:47;15.43;;;13.83;;
12474;SDS011;6302;42.624;23.334;2022-09-27T10:34:19;15.60;;;14.00;;
12474;SDS011;6302;42.624;23.334;2022-09-27T10:37:10;16.07;;;14.23;;
12474;SDS011;6302;42.624;23.334;2022-09-27T10:39:41;16.23;;;14.53;;
12474;SDS011;6302;42.624;23.334;2022-09-27T10:42:19;15.43;;;13.50;;
12474;SDS011;6302;42.624;23.334;2022-09-27T10:44:47;13.40;;;12.13;;
12474;SDS011;6302;42.624;23.334;2022-09-27T10:47:16;6.70;;;6.10;;
12474;SDS011;6302;42.624;23.334;2022-09-27T10:49:47;8.70;;;7.90;;
12474;SDS011;6302;42.624;23.334;2022-09-27T10:52:18;12.27;;;11.17;;
12474;SDS011;6302;42.624;23.334;2022-09-27T10:54:52;12.00;;;10.80;;
12474;SDS011;6302;42.624;23.334;2022-09-27T10:57:20;11.03;;;10.10;;
12474;SDS011;6302;42.624;23.334;2022-09-27T10:59:50;9.70;;;8.80;;
12474;SDS011;6302;42.624;23.334;2022-09-27T11:02:19;10.60;;;9.57;;
12474;SDS011;6302;42.624;23.334;2022-09-27T11:05:01;9.57;;;8.77;;
12474;SDS011;6302;42.624;23.334;2022-09-27T11:07:35;10.53;;;9.47;;
12474;SDS011;6302;42.624;23.334;2022-09-27T11:10:18;10.03;;;9.13;;
12474;SDS011;6302;42.624;23.334;2022-09-27T11:13:04;8.63;;;7.83;;
12474;SDS011;6302;42.624;23.334;2022-09-27T11:15:41;9.50;;;8.57;;
12474;SDS011;6302;42.624;23.334;2022-09-27T11:18:31;8.97;;;8.17;;
12474;SDS011;6302;42.624;23.334;2022-09-27T11:21:12;9.93;;;8.87;;
12474;SDS011;6302;42.624;23.334;2022-09-27T11:23:58;9.83;;;8.83;;
12474;SDS011;6302;42.624;23.334;2022-09-27T11:26:35;9.60;;;8.60;;
12474;SDS011;6302;42.624;23.334;2022-09-27T11:29:13;8.63;;;7.80;;
12474;SDS011;6302;42.624;23.334;2022-09-27T11:31:51;8.87;;;7.97;;
12474;SDS011;6302;42.624;23.334;2022-09-27T11:34:46;8.13;;;6.87;;
12474;SDS011;6302;42.624;23.334;2022-09-27T11:37:32;7.83;;;7.13;;
12474;SDS011;6302;42.624;23.334;2022-09-27T11:40:14;9.23;;;8.33;;
12474;SDS011;6302;42.624;23.334;2022-09-27T11:42:55;9.07;;;8.20;;
12474;SDS011;6302;42.624;23.334;2022-09-27T11:45:46;9.93;;;9.03;;
12474;SDS011;6302;42.624;23.334;2022-09-27T11:48:23;9.77;;;8.87;;
12474;SDS011;6302;42.624;23.334;2022-09-27T11:51:06;8.70;;;7.90;;
12474;SDS011;6302;42.624;23.334;2022-09-27T11:56:35;8.23;;;7.43;;
12474;SDS011;6302;42.624;23.334;2022-09-27T11:59:14;9.07;;;7.47;;
12474;SDS011;6302;42.624;23.334;2022-09-27T12:02:03;9.10;;;8.30;;
12474;SDS011;6302;42.624;23.334;2022-09-27T12:04:49;8.13;;;7.27;;
12474;SDS011;6302;42.624;23.334;2022-09-27T12:07:25;8.00;;;6.90;;
12474;SDS011;6302;42.624;23.334;2022-09-27T12:09:59;7.90;;;7.20;;
12474;SDS011;6302;42.624;23.334;2022-09-27T12:12:31;6.63;;;6.03;;
12474;SDS011;6302;42.624;23.334;2022-09-27T12:15:02;7.37;;;6.63;;
12474;SDS011;6302;42.624;23.334;2022-09-27T12:17:32;6.07;;;5.53;;
12474;SDS011;6302;42.624;23.334;2022-09-27T12:20:05;5.37;;;4.47;;
12474;SDS011;6302;42.624;23.334;2022-09-27T12:22:47;5.67;;;4.80;;
12474;SDS011;6302;42.624;23.334;2022-09-27T12:25:18;5.53;;;5.03;;
12474;SDS011;6302;42.624;23.334;2022-09-27T12:27:48;5.63;;;5.13;;
12474;SDS011;6302;42.624;23.334;2022-09-27T12:30:19;5.30;;;4.80;;
12474;SDS011;6302;42.624;23.334;2022-09-27T12:32:48;5.63;;;4.83;;
12474;SDS011;6302;42.624;23.334;2022-09-27T12:35:20;4.80;;;4.40;;
12474;SDS011;6302;42.624;23.334;2022-09-27T12:37:51;4.83;;;4.43;;
12474;SDS011;6302;42.624;23.334;2022-09-27T12:40:25;4.70;;;4.30;;
12474;SDS011;6302;42.624;23.334;2022-09-27T12:42:57;4.73;;;4.37;;
12474;SDS011;6302;42.624;23.334;2022-09-27T12:45:32;4.53;;;4.13;;
12474;SDS011;6302;42.624;23.334;2022-09-27T12:48:13;5.37;;;4.00;;
12474;SDS011;6302;42.624;23.334;2022-09-27T12:50:46;3.47;;;3.28;;
12474;SDS011;6302;42.624;23.334;2022-09-27T12:53:19;3.07;;;2.87;;
12474;SDS011;6302;42.624;23.334;2022-09-27T12:56:02;2.40;;;2.30;;
12474;SDS011;6302;42.624;23.334;2022-09-27T12:58:48;2.50;;;2.00;;
12474;SDS011;6302;42.624;23.334;2022-09-27T13:01:41;2.67;;;1.87;;
12474;SDS011;6302;42.624;23.334;2022-09-27T13:04:25;1.63;;;1.53;;
12474;SDS011;6302;42.624;23.334;2022-09-27T13:07:13;2.10;;;1.90;;
12474;SDS011;6302;42.624;23.334;2022-09-27T13:09:57;1.93;;;1.50;;
12474;SDS011;6302;42.624;23.334;2022-09-27T13:12:32;2.40;;;2.30;;
12474;SDS011;6302;42.624;23.334;2022-09-27T13:15:02;2.45;;;2.20;;
12474;SDS011;6302;42.624;23.334;2022-09-27T13:20:37;2.20;;;2.10;;
12474;SDS011;6302;42.624;23.334;2022-09-27T13:26:21;1.70;;;1.60;;
12474;SDS011;6302;42.624;23.334;2022-09-27T13:29:19;1.53;;;1.43;;
12474;SDS011;6302;42.624;23.334;2022-09-27T13:32:02;1.50;;;1.40;;
12474;SDS011;6302;42.624;23.334;2022-09-27T13:34:45;2.00;;;1.40;;
12474;SDS011;6302;42.624;23.334;2022-09-27T13:40:21;1.60;;;1.50;;
12474;SDS011;6302;42.624;23.334;2022-09-27T13:46:06;1.50;;;1.40;;
12474;SDS011;6302;42.624;23.334;2022-09-27T13:48:46;2.30;;;1.53;;
12474;SDS011;6302;42.624;23.334;2022-09-27T13:51:27;2.25;;;1.67;;
12474;SDS011;6302;42.624;23.334;2022-09-27T13:54:00;1.50;;;1.40;;
12474;SDS011;6302;42.624;23.334;2022-09-27T13:56:46;1.13;;;1.13;;
12474;SDS011;6302;42.624;23.334;2022-09-27T13:59:16;1.30;;;1.20;;
12474;SDS011;6302;42.624;23.334;2022-09-27T14:01:50;1.50;;;1.40;;
12474;SDS011;6302;42.624;23.334;2022-09-27T14:04:21;2.10;;;1.20;;
12474;SDS011;6302;42.624;23.334;2022-09-27T14:06:54;1.60;;;1.50;;
12474;SDS011;6302;42.624;23.334;2022-09-27T14:09:24;1.37;;;1.20;;
12474;SDS011;6302;42.624;23.334;2022-09-27T14:11:55;1.53;;;1.10;;
12474;SDS011;6302;42.624;23.334;2022-09-27T14:14:26;1.13;;;1.00;;
12474;SDS011;6302;42.624;23.334;2022-09-27T14:16:55;2.10;;;1.10;;
12474;SDS011;6302;42.624;23.334;2022-09-27T14:19:26;1.07;;;1.07;;
12474;SDS011;6302;42.624;23.334;2022-09-27T14:22:10;2.27;;;1.10;;
12474;SDS011;6302;42.624;23.334;2022-09-27T14:24:45;1.30;;;1.20;;
12474;SDS011;6302;42.624;23.334;2022-09-27T14:27:15;1.63;;;1.53;;
12474;SDS011;6302;42.624;23.334;2022-09-27T14:29:44;1.00;;;1.00;;
12474;SDS011;6302;42.624;23.334;2022-09-27T14:32:15;1.40;;;1.30;;
12474;SDS011;6302;42.624;23.334;2022-09-27T14:34:44;1.27;;;1.17;;
12474;SDS011;6302;42.624;23.334;2022-09-27T14:37:19;2.40;;;1.00;;
12474;SDS011;6302;42.624;23.334;2022-09-27T14:39:54;2.30;;;2.00;;
12474;SDS011;6302;42.624;23.334;2022-09-27T14:42:24;1.40;;;1.30;;
12474;SDS011;6302;42.624;23.334;2022-09-27T14:44:58;1.30;;;1.20;;
12474;SDS011;6302;42.624;23.334;2022-09-27T14:47:28;3.00;;;1.47;;
12474;SDS011;6302;42.624;23.334;2022-09-27T14:49:57;1.43;;;1.33;;
12474;SDS011;6302;42.624;23.334;2022-09-27T14:52:26;2.23;;;1.30;;
12474;SDS011;6302;42.624;23.334;2022-09-27T14:54:56;1.43;;;1.30;;
12474;SDS011;6302;42.624;23.334;2022-09-27T14:57:24;1.30;;;1.20;;
12474;SDS011;6302;42.624;23.334;2022-09-27T14:59:54;1.33;;;1.23;;
12474;SDS011;6302;42.624;23.334;2022-09-27T15:02:22;2.67;;;2.20;;
12474;SDS011;6302;42.624;23.334;2022-09-27T15:04:50;3.83;;;2.97;;
12474;SDS011;6302;42.624;23.334;2022-09-27T15:07:20;4.07;;;2.73;;
12474;SDS011;6302;42.624;23.334;2022-09-27T15:09:47;3.50;;;2.80;;
12474;SDS011;6302;42.624;23.334;2022-09-27T15:12:18;3.93;;;2.80;;
12474;SDS011;6302;42.624;23.334;2022-09-27T15:14:50;3.37;;;3.07;;
12474;SDS011;6302;42.624;23.334;2022-09-27T15:17:19;5.60;;;3.50;;
12474;SDS011;6302;42.624;23.334;2022-09-27T15:19:57;2.93;;;2.73;;
12474;SDS011;6302;42.624;23.334;2022-09-27T15:22:32;1.73;;;1.60;;
12474;SDS011;6302;42.624;23.334;2022-09-27T15:25:14;2.07;;;1.27;;